sensor_id;sensor_type;location;lat;lon;timestamp;P1;durP1;ratioP1;P2;durP2;ratioP2
966;SDS011;56108;48.730;9.304;2022-11-14T00:00:20;45.80;;;32.88;;
966;SDS011;56108;48.730;9.304;2022-11-14T00:02:47;42.60;;;33.90;;
966;SDS011;56108;48.730;9.304;2022-11-14T00:05:16;42.90;;;34.35;;
966;SDS011;56108;48.730;9.304;2022-11-14T00:07:43;36.97;;;30.73;;
966;SDS011;56108;48.730;9.304;2022-11-14T00:10:10;38.00;;;30.88;;
966;SDS011;56108;48.730;9.304;2022-11-14T00:12:37;39.50;;;29.63;;
966;SDS011;56108;48.730;9.304;2022-11-14T00:15:04;36.58;;;30.08;;
966;SDS011;56108;48.730;9.304;2022-11-14T00:17:31;42.90;;;32.80;;
966;SDS011;56108;48.730;9.304;2022-11-14T00:19:57;34.42;;;28.58;;
966;SDS011;56108;48.730;9.304;2022-11-14T00:22:26;35.92;;;28.15;;
966;SDS011;56108;48.730;9.304;2022-11-14T00:24:52;36.15;;;29.75;;
966;SDS011;56108;48.730;9.304;2022-11-14T00:27:20;33.42;;;28.10;;
966;SDS011;56108;48.730;9.304;2022-11-14T00:29:47;31.13;;;26.77;;
966;SDS011;56108;48.730;9.304;2022-11-14T00:32:14;31.70;;;25.35;;
966;SDS011;56108;48.730;9.304;2022-11-14T00:34:40;34.53;;;26.38;;
966;SDS011;56108;48.730;9.304;2022-11-14T00:37:06;28.92;;;24.05;;
966;SDS011;56108;48.730;9.304;2022-11-14T00:39:36;31.38;;;25.88;;
966;SDS011;56108;48.730;9.304;2022-11-14T00:42:03;30.90;;;24.02;;
966;SDS011;56108;48.730;9.304;2022-11-14T00:44:29;28.70;;;24.40;;
966;SDS011;56108;48.730;9.304;2022-11-14T00:46:55;34.25;;;25.10;;
966;SDS011;56108;48.730;9.304;2022-11-14T00:49:22;31.52;;;25.17;;
966;SDS011;56108;48.730;9.304;2022-11-14T00:51:49;31.77;;;24.05;;
966;SDS011;56108;48.730;9.304;2022-11-14T00:54:16;30.73;;;25.15;;
966;SDS011;56108;48.730;9.304;2022-11-14T00:56:45;29.58;;;24.90;;
966;SDS011;56108;48.730;9.304;2022-11-14T00:59:13;31.15;;;26.70;;
966;SDS011;56108;48.730;9.304;2022-11-14T01:01:40;27.20;;;22.55;;
966;SDS011;56108;48.730;9.304;2022-11-14T01:04:06;32.10;;;24.25;;
966;SDS011;56108;48.730;9.304;2022-11-14T01:06:34;27.65;;;24.65;;
966;SDS011;56108;48.730;9.304;2022-11-14T01:09:02;35.40;;;27.60;;
966;SDS011;56108;48.730;9.304;2022-11-14T01:11:29;28.40;;;25.35;;
966;SDS011;56108;48.730;9.304;2022-11-14T01:14:00;31.45;;;26.05;;
966;SDS011;56108;48.730;9.304;2022-11-14T01:16:26;29.45;;;26.08;;
966;SDS011;56108;48.730;9.304;2022-11-14T01:18:53;31.10;;;25.02;;
966;SDS011;56108;48.730;9.304;2022-11-14T01:21:20;36.63;;;29.38;;
966;SDS011;56108;48.730;9.304;2022-11-14T01:23:48;32.40;;;27.27;;
966;SDS011;56108;48.730;9.304;2022-11-14T01:26:14;32.53;;;26.75;;
966;SDS011;56108;48.730;9.304;2022-11-14T01:28:41;35.55;;;27.23;;
966;SDS011;56108;48.730;9.304;2022-11-14T01:31:12;33.50;;;27.35;;
966;SDS011;56108;48.730;9.304;2022-11-14T01:33:41;31.65;;;26.90;;
966;SDS011;56108;48.730;9.304;2022-11-14T01:36:09;35.13;;;28.00;;
966;SDS011;56108;48.730;9.304;2022-11-14T01:38:36;35.65;;;29.75;;
966;SDS011;56108;48.730;9.304;2022-11-14T01:41:04;35.58;;;29.45;;
966;SDS011;56108;48.730;9.304;2022-11-14T01:43:31;35.70;;;30.00;;
966;SDS011;56108;48.730;9.304;2022-11-14T01:46:00;33.13;;;27.63;;
966;SDS011;56108;48.730;9.304;2022-11-14T01:48:36;32.47;;;28.25;;
966;SDS011;56108;48.730;9.304;2022-11-14T01:51:15;32.80;;;27.98;;
966;SDS011;56108;48.730;9.304;2022-11-14T01:53:47;35.75;;;27.20;;
966;SDS011;56108;48.730;9.304;2022-11-14T01:56:21;30.25;;;26.00;;
966;SDS011;56108;48.730;9.304;2022-11-14T01:58:53;33.30;;;28.90;;
966;SDS011;56108;48.730;9.304;2022-11-14T02:01:25;35.35;;;27.25;;
966;SDS011;56108;48.730;9.304;2022-11-14T02:03:56;36.35;;;28.15;;
966;SDS011;56108;48.730;9.304;2022-11-14T02:06:29;36.50;;;26.08;;
966;SDS011;56108;48.730;9.304;2022-11-14T02:08:57;37.65;;;29.98;;
966;SDS011;56108;48.730;9.304;2022-11-14T02:11:27;39.72;;;30.38;;
966;SDS011;56108;48.730;9.304;2022-11-14T02:13:55;36.05;;;29.83;;
966;SDS011;56108;48.730;9.304;2022-11-14T02:16:22;36.50;;;29.63;;
966;SDS011;56108;48.730;9.304;2022-11-14T02:18:49;40.63;;;28.33;;
966;SDS011;56108;48.730;9.304;2022-11-14T02:21:18;34.72;;;28.83;;
966;SDS011;56108;48.730;9.304;2022-11-14T02:23:45;40.92;;;30.42;;
966;SDS011;56108;48.730;9.304;2022-11-14T02:26:14;53.50;;;33.13;;
966;SDS011;56108;48.730;9.304;2022-11-14T02:28:42;99.35;;;38.67;;
966;SDS011;56108;48.730;9.304;2022-11-14T02:31:09;72.82;;;34.85;;
966;SDS011;56108;48.730;9.304;2022-11-14T02:33:36;45.05;;;32.53;;
966;SDS011;56108;48.730;9.304;2022-11-14T02:36:04;39.47;;;32.55;;
966;SDS011;56108;48.730;9.304;2022-11-14T02:38:35;39.88;;;32.70;;
966;SDS011;56108;48.730;9.304;2022-11-14T02:41:02;39.25;;;30.10;;
966;SDS011;56108;48.730;9.304;2022-11-14T02:43:28;44.10;;;33.28;;
966;SDS011;56108;48.730;9.304;2022-11-14T02:45:55;39.95;;;30.85;;
966;SDS011;56108;48.730;9.304;2022-11-14T02:48:27;40.78;;;31.80;;
966;SDS011;56108;48.730;9.304;2022-11-14T02:50:54;37.50;;;30.15;;
966;SDS011;56108;48.730;9.304;2022-11-14T02:53:20;36.08;;;30.05;;
966;SDS011;56108;48.730;9.304;2022-11-14T02:55:50;36.45;;;29.88;;
966;SDS011;56108;48.730;9.304;2022-11-14T02:58:16;41.75;;;31.95;;
966;SDS011;56108;48.730;9.304;2022-11-14T03:00:43;38.08;;;29.73;;
966;SDS011;56108;48.730;9.304;2022-11-14T03:03:29;35.53;;;29.05;;
966;SDS011;56108;48.730;9.304;2022-11-14T03:05:57;37.88;;;31.27;;
966;SDS011;56108;48.730;9.304;2022-11-14T03:08:24;42.92;;;32.30;;
966;SDS011;56108;48.730;9.304;2022-11-14T03:10:54;36.88;;;31.63;;
966;SDS011;56108;48.730;9.304;2022-11-14T03:13:20;38.55;;;31.48;;
966;SDS011;56108;48.730;9.304;2022-11-14T03:15:47;38.67;;;33.35;;
966;SDS011;56108;48.730;9.304;2022-11-14T03:18:14;37.22;;;29.98;;
966;SDS011;56108;48.730;9.304;2022-11-14T03:20:40;39.75;;;34.50;;
966;SDS011;56108;48.730;9.304;2022-11-14T03:23:06;44.42;;;30.88;;
966;SDS011;56108;48.730;9.304;2022-11-14T03:25:33;106.45;;;34.22;;
966;SDS011;56108;48.730;9.304;2022-11-14T03:28:03;128.23;;;34.63;;
966;SDS011;56108;48.730;9.304;2022-11-14T03:30:30;33.58;;;27.30;;
966;SDS011;56108;48.730;9.304;2022-11-14T03:32:56;31.58;;;28.08;;
966;SDS011;56108;48.730;9.304;2022-11-14T03:35:23;266.27;;;45.50;;
966;SDS011;56108;48.730;9.304;2022-11-14T03:37:52;230.45;;;45.55;;
966;SDS011;56108;48.730;9.304;2022-11-14T03:40:24;111.90;;;32.22;;
966;SDS011;56108;48.730;9.304;2022-11-14T03:43:07;36.92;;;26.23;;
966;SDS011;56108;48.730;9.304;2022-11-14T03:45:34;28.20;;;24.30;;
966;SDS011;56108;48.730;9.304;2022-11-14T03:48:02;29.90;;;25.42;;
966;SDS011;56108;48.730;9.304;2022-11-14T03:50:29;31.80;;;27.27;;
966;SDS011;56108;48.730;9.304;2022-11-14T03:52:56;33.33;;;26.55;;
966;SDS011;56108;48.730;9.304;2022-11-14T03:55:23;30.75;;;26.48;;
966;SDS011;56108;48.730;9.304;2022-11-14T03:57:50;33.72;;;26.27;;
966;SDS011;56108;48.730;9.304;2022-11-14T04:00:20;66.53;;;31.73;;
966;SDS011;56108;48.730;9.304;2022-11-14T04:02:49;40.10;;;28.88;;
966;SDS011;56108;48.730;9.304;2022-11-14T04:05:16;121.03;;;35.88;;
966;SDS011;56108;48.730;9.304;2022-11-14T04:07:42;104.63;;;34.42;;
966;SDS011;56108;48.730;9.304;2022-11-14T04:10:09;198.13;;;42.38;;
966;SDS011;56108;48.730;9.304;2022-11-14T04:12:36;137.45;;;38.00;;
966;SDS011;56108;48.730;9.304;2022-11-14T04:15:03;102.85;;;36.05;;
966;SDS011;56108;48.730;9.304;2022-11-14T04:17:33;107.80;;;31.92;;
966;SDS011;56108;48.730;9.304;2022-11-14T04:20:02;81.50;;;31.45;;
966;SDS011;56108;48.730;9.304;2022-11-14T04:22:29;58.30;;;30.17;;
966;SDS011;56108;48.730;9.304;2022-11-14T04:24:55;38.75;;;25.45;;
966;SDS011;56108;48.730;9.304;2022-11-14T04:27:23;39.83;;;30.00;;
966;SDS011;56108;48.730;9.304;2022-11-14T04:29:50;39.33;;;26.20;;
966;SDS011;56108;48.730;9.304;2022-11-14T04:32:16;29.33;;;23.10;;
966;SDS011;56108;48.730;9.304;2022-11-14T04:34:46;45.33;;;26.27;;
966;SDS011;56108;48.730;9.304;2022-11-14T04:37:12;36.97;;;24.20;;
966;SDS011;56108;48.730;9.304;2022-11-14T04:39:39;36.25;;;25.10;;
966;SDS011;56108;48.730;9.304;2022-11-14T04:42:07;41.72;;;24.42;;
966;SDS011;56108;48.730;9.304;2022-11-14T04:44:36;35.13;;;22.15;;
966;SDS011;56108;48.730;9.304;2022-11-14T04:47:02;30.38;;;23.17;;
966;SDS011;56108;48.730;9.304;2022-11-14T04:49:30;29.40;;;24.38;;
966;SDS011;56108;48.730;9.304;2022-11-14T04:51:59;40.97;;;25.23;;
966;SDS011;56108;48.730;9.304;2022-11-14T04:54:25;29.05;;;24.83;;
966;SDS011;56108;48.730;9.304;2022-11-14T04:56:52;33.45;;;25.60;;
966;SDS011;56108;48.730;9.304;2022-11-14T04:59:19;28.73;;;23.13;;
966;SDS011;56108;48.730;9.304;2022-11-14T05:01:47;38.28;;;25.90;;
966;SDS011;56108;48.730;9.304;2022-11-14T05:04:13;33.08;;;26.02;;
966;SDS011;56108;48.730;9.304;2022-11-14T05:06:40;29.95;;;24.35;;
966;SDS011;56108;48.730;9.304;2022-11-14T05:09:09;31.23;;;23.48;;
966;SDS011;56108;48.730;9.304;2022-11-14T05:11:35;30.05;;;23.60;;
966;SDS011;56108;48.730;9.304;2022-11-14T05:14:01;25.15;;;21.20;;
966;SDS011;56108;48.730;9.304;2022-11-14T05:16:27;26.60;;;21.70;;
966;SDS011;56108;48.730;9.304;2022-11-14T05:18:55;26.92;;;22.30;;
966;SDS011;56108;48.730;9.304;2022-11-14T05:21:21;25.80;;;21.23;;
966;SDS011;56108;48.730;9.304;2022-11-14T05:23:49;30.27;;;22.35;;
966;SDS011;56108;48.730;9.304;2022-11-14T05:26:19;27.05;;;21.38;;
966;SDS011;56108;48.730;9.304;2022-11-14T05:28:45;32.22;;;22.77;;
966;SDS011;56108;48.730;9.304;2022-11-14T05:31:12;26.33;;;22.02;;
966;SDS011;56108;48.730;9.304;2022-11-14T05:33:40;24.85;;;21.00;;
966;SDS011;56108;48.730;9.304;2022-11-14T05:36:07;28.55;;;22.80;;
966;SDS011;56108;48.730;9.304;2022-11-14T05:38:35;24.42;;;21.13;;
966;SDS011;56108;48.730;9.304;2022-11-14T05:41:04;25.25;;;20.80;;
966;SDS011;56108;48.730;9.304;2022-11-14T05:43:34;26.02;;;21.80;;
966;SDS011;56108;48.730;9.304;2022-11-14T05:46:01;23.85;;;20.05;;
966;SDS011;56108;48.730;9.304;2022-11-14T05:48:30;25.45;;;19.60;;
966;SDS011;56108;48.730;9.304;2022-11-14T05:50:57;23.42;;;20.15;;
966;SDS011;56108;48.730;9.304;2022-11-14T05:53:25;24.70;;;20.73;;
966;SDS011;56108;48.730;9.304;2022-11-14T05:55:53;24.98;;;21.13;;
966;SDS011;56108;48.730;9.304;2022-11-14T05:58:20;24.20;;;18.88;;
966;SDS011;56108;48.730;9.304;2022-11-14T06:00:49;22.00;;;17.73;;
966;SDS011;56108;48.730;9.304;2022-11-14T06:03:17;24.50;;;19.73;;
966;SDS011;56108;48.730;9.304;2022-11-14T06:05:44;25.20;;;19.60;;
966;SDS011;56108;48.730;9.304;2022-11-14T06:08:10;22.40;;;18.80;;
966;SDS011;56108;48.730;9.304;2022-11-14T06:10:36;23.95;;;19.95;;
966;SDS011;56108;48.730;9.304;2022-11-14T06:13:03;23.80;;;19.50;;
966;SDS011;56108;48.730;9.304;2022-11-14T06:15:30;25.30;;;19.48;;
966;SDS011;56108;48.730;9.304;2022-11-14T06:17:58;28.45;;;19.33;;
966;SDS011;56108;48.730;9.304;2022-11-14T06:20:25;25.90;;;19.90;;
966;SDS011;56108;48.730;9.304;2022-11-14T06:22:52;24.17;;;19.48;;
966;SDS011;56108;48.730;9.304;2022-11-14T06:25:19;20.77;;;18.38;;
966;SDS011;56108;48.730;9.304;2022-11-14T06:27:46;24.50;;;21.70;;
966;SDS011;56108;48.730;9.304;2022-11-14T06:30:12;25.58;;;21.23;;
966;SDS011;56108;48.730;9.304;2022-11-14T06:32:40;22.88;;;20.10;;
966;SDS011;56108;48.730;9.304;2022-11-14T06:35:09;26.58;;;21.70;;
966;SDS011;56108;48.730;9.304;2022-11-14T06:37:37;24.10;;;21.00;;
966;SDS011;56108;48.730;9.304;2022-11-14T06:40:12;26.95;;;22.50;;
966;SDS011;56108;48.730;9.304;2022-11-14T06:42:40;25.00;;;20.63;;
966;SDS011;56108;48.730;9.304;2022-11-14T06:45:07;25.63;;;22.88;;
966;SDS011;56108;48.730;9.304;2022-11-14T06:47:36;31.30;;;24.63;;
966;SDS011;56108;48.730;9.304;2022-11-14T06:50:05;30.70;;;23.65;;
966;SDS011;56108;48.730;9.304;2022-11-14T06:52:35;34.78;;;25.65;;
966;SDS011;56108;48.730;9.304;2022-11-14T06:55:01;26.02;;;20.80;;
966;SDS011;56108;48.730;9.304;2022-11-14T06:57:28;27.35;;;22.58;;
966;SDS011;56108;48.730;9.304;2022-11-14T06:59:54;26.48;;;23.15;;
966;SDS011;56108;48.730;9.304;2022-11-14T07:02:21;30.40;;;20.70;;
966;SDS011;56108;48.730;9.304;2022-11-14T07:04:48;34.40;;;22.52;;
966;SDS011;56108;48.730;9.304;2022-11-14T07:07:15;28.60;;;22.98;;
966;SDS011;56108;48.730;9.304;2022-11-14T07:09:44;29.83;;;22.52;;
966;SDS011;56108;48.730;9.304;2022-11-14T07:12:12;26.33;;;21.83;;
966;SDS011;56108;48.730;9.304;2022-11-14T07:14:40;26.30;;;21.23;;
966;SDS011;56108;48.730;9.304;2022-11-14T07:17:07;27.15;;;22.65;;
966;SDS011;56108;48.730;9.304;2022-11-14T07:19:34;31.95;;;25.58;;
966;SDS011;56108;48.730;9.304;2022-11-14T07:22:01;34.03;;;25.23;;
966;SDS011;56108;48.730;9.304;2022-11-14T07:24:27;30.33;;;25.05;;
966;SDS011;56108;48.730;9.304;2022-11-14T07:26:57;31.70;;;25.80;;
966;SDS011;56108;48.730;9.304;2022-11-14T07:29:24;34.45;;;26.45;;
966;SDS011;56108;48.730;9.304;2022-11-14T07:31:50;28.67;;;21.73;;
966;SDS011;56108;48.730;9.304;2022-11-14T07:34:17;26.55;;;21.75;;
966;SDS011;56108;48.730;9.304;2022-11-14T07:36:44;28.08;;;23.88;;
966;SDS011;56108;48.730;9.304;2022-11-14T07:39:10;26.75;;;22.65;;
966;SDS011;56108;48.730;9.304;2022-11-14T07:41:36;29.80;;;22.70;;
966;SDS011;56108;48.730;9.304;2022-11-14T07:44:06;27.75;;;21.30;;
966;SDS011;56108;48.730;9.304;2022-11-14T07:46:33;26.88;;;19.77;;
966;SDS011;56108;48.730;9.304;2022-11-14T07:49:00;27.25;;;21.90;;
966;SDS011;56108;48.730;9.304;2022-11-14T07:51:26;28.15;;;21.25;;
966;SDS011;56108;48.730;9.304;2022-11-14T07:53:54;27.75;;;21.63;;
966;SDS011;56108;48.730;9.304;2022-11-14T07:56:20;31.75;;;23.42;;
966;SDS011;56108;48.730;9.304;2022-11-14T07:58:47;23.30;;;20.02;;
966;SDS011;56108;48.730;9.304;2022-11-14T08:01:17;26.92;;;20.10;;
966;SDS011;56108;48.730;9.304;2022-11-14T08:03:43;22.65;;;19.98;;
966;SDS011;56108;48.730;9.304;2022-11-14T08:06:12;20.85;;;17.83;;
966;SDS011;56108;48.730;9.304;2022-11-14T08:08:41;24.00;;;19.85;;
966;SDS011;56108;48.730;9.304;2022-11-14T08:11:09;22.08;;;19.05;;
966;SDS011;56108;48.730;9.304;2022-11-14T08:13:56;23.60;;;21.25;;
966;SDS011;56108;48.730;9.304;2022-11-14T08:16:26;24.85;;;22.27;;
966;SDS011;56108;48.730;9.304;2022-11-14T08:18:53;26.35;;;22.92;;
966;SDS011;56108;48.730;9.304;2022-11-14T08:21:19;23.23;;;20.92;;
966;SDS011;56108;48.730;9.304;2022-11-14T08:23:45;22.02;;;19.52;;
966;SDS011;56108;48.730;9.304;2022-11-14T08:26:12;23.60;;;20.45;;
966;SDS011;56108;48.730;9.304;2022-11-14T08:28:39;21.70;;;19.40;;
966;SDS011;56108;48.730;9.304;2022-11-14T08:31:06;26.42;;;21.50;;
966;SDS011;56108;48.730;9.304;2022-11-14T08:33:35;24.58;;;21.73;;
966;SDS011;56108;48.730;9.304;2022-11-14T08:36:03;24.10;;;21.50;;
966;SDS011;56108;48.730;9.304;2022-11-14T08:38:32;22.88;;;19.70;;
966;SDS011;56108;48.730;9.304;2022-11-14T08:41:02;22.95;;;19.00;;
966;SDS011;56108;48.730;9.304;2022-11-14T08:43:29;25.60;;;21.25;;
966;SDS011;56108;48.730;9.304;2022-11-14T08:45:57;19.60;;;17.55;;
966;SDS011;56108;48.730;9.304;2022-11-14T08:48:25;20.75;;;18.45;;
966;SDS011;56108;48.730;9.304;2022-11-14T08:50:57;22.77;;;18.05;;
966;SDS011;56108;48.730;9.304;2022-11-14T08:53:27;19.73;;;16.83;;
966;SDS011;56108;48.730;9.304;2022-11-14T08:55:54;19.00;;;15.82;;
966;SDS011;56108;48.730;9.304;2022-11-14T08:58:21;22.15;;;18.35;;
966;SDS011;56108;48.730;9.304;2022-11-14T09:00:47;27.00;;;23.98;;
966;SDS011;56108;48.730;9.304;2022-11-14T09:03:15;29.40;;;24.60;;
966;SDS011;56108;48.730;9.304;2022-11-14T09:05:42;27.63;;;24.25;;
966;SDS011;56108;48.730;9.304;2022-11-14T09:08:11;27.70;;;23.25;;
966;SDS011;56108;48.730;9.304;2022-11-14T09:10:39;25.20;;;22.10;;
966;SDS011;56108;48.730;9.304;2022-11-14T09:13:06;27.38;;;23.73;;
966;SDS011;56108;48.730;9.304;2022-11-14T09:15:33;28.17;;;22.95;;
966;SDS011;56108;48.730;9.304;2022-11-14T09:17:59;28.45;;;24.15;;
966;SDS011;56108;48.730;9.304;2022-11-14T09:20:26;23.90;;;21.40;;
966;SDS011;56108;48.730;9.304;2022-11-14T09:22:58;27.20;;;22.48;;
966;SDS011;56108;48.730;9.304;2022-11-14T09:25:28;28.67;;;23.45;;
966;SDS011;56108;48.730;9.304;2022-11-14T09:27:55;26.02;;;22.08;;
966;SDS011;56108;48.730;9.304;2022-11-14T09:30:22;25.13;;;22.05;;
966;SDS011;56108;48.730;9.304;2022-11-14T09:32:48;26.85;;;23.20;;
966;SDS011;56108;48.730;9.304;2022-11-14T09:35:16;23.52;;;20.85;;
966;SDS011;56108;48.730;9.304;2022-11-14T09:37:43;24.05;;;20.00;;
966;SDS011;56108;48.730;9.304;2022-11-14T09:40:10;24.48;;;20.52;;
966;SDS011;56108;48.730;9.304;2022-11-14T09:42:50;26.98;;;22.98;;
966;SDS011;56108;48.730;9.304;2022-11-14T09:45:29;23.35;;;20.80;;
966;SDS011;56108;48.730;9.304;2022-11-14T09:48:00;23.67;;;19.83;;
966;SDS011;56108;48.730;9.304;2022-11-14T09:50:33;25.05;;;19.75;;
966;SDS011;56108;48.730;9.304;2022-11-14T09:53:06;23.08;;;20.73;;
966;SDS011;56108;48.730;9.304;2022-11-14T09:55:39;22.40;;;20.10;;
966;SDS011;56108;48.730;9.304;2022-11-14T09:58:10;24.60;;;18.95;;
966;SDS011;56108;48.730;9.304;2022-11-14T10:00:43;20.58;;;18.63;;
966;SDS011;56108;48.730;9.304;2022-11-14T10:03:15;24.30;;;21.80;;
966;SDS011;56108;48.730;9.304;2022-11-14T10:05:51;30.02;;;23.63;;
966;SDS011;56108;48.730;9.304;2022-11-14T10:08:43;25.98;;;22.30;;
966;SDS011;56108;48.730;9.304;2022-11-14T10:11:25;24.48;;;21.20;;
966;SDS011;56108;48.730;9.304;2022-11-14T10:14:08;23.98;;;20.85;;
966;SDS011;56108;48.730;9.304;2022-11-14T10:16:48;25.98;;;20.70;;
966;SDS011;56108;48.730;9.304;2022-11-14T10:19:31;24.50;;;19.85;;
966;SDS011;56108;48.730;9.304;2022-11-14T10:22:10;25.67;;;19.65;;
966;SDS011;56108;48.730;9.304;2022-11-14T10:27:45;20.00;;;17.90;;
966;SDS011;56108;48.730;9.304;2022-11-14T10:30:33;24.30;;;18.75;;
966;SDS011;56108;48.730;9.304;2022-11-14T10:33:07;19.80;;;17.75;;
966;SDS011;56108;48.730;9.304;2022-11-14T10:35:44;18.45;;;16.48;;
966;SDS011;56108;48.730;9.304;2022-11-14T10:38:18;18.35;;;15.68;;
966;SDS011;56108;48.730;9.304;2022-11-14T10:40:53;16.45;;;14.70;;
966;SDS011;56108;48.730;9.304;2022-11-14T10:43:25;17.85;;;14.65;;
966;SDS011;56108;48.730;9.304;2022-11-14T10:45:59;16.50;;;14.80;;
966;SDS011;56108;48.730;9.304;2022-11-14T10:48:29;15.35;;;13.85;;
966;SDS011;56108;48.730;9.304;2022-11-14T10:50:58;14.90;;;13.40;;
966;SDS011;56108;48.730;9.304;2022-11-14T10:53:33;16.35;;;14.65;;
966;SDS011;56108;48.730;9.304;2022-11-14T10:56:10;13.40;;;12.10;;
966;SDS011;56108;48.730;9.304;2022-11-14T10:58:37;15.30;;;13.50;;
966;SDS011;56108;48.730;9.304;2022-11-14T11:04:13;10.57;;;9.57;;
966;SDS011;56108;48.730;9.304;2022-11-14T11:06:55;11.10;;;10.10;;
966;SDS011;56108;48.730;9.304;2022-11-14T11:09:24;11.90;;;10.70;;
966;SDS011;56108;48.730;9.304;2022-11-14T11:12:08;13.65;;;10.80;;
966;SDS011;56108;48.730;9.304;2022-11-14T11:14:41;12.32;;;11.02;;
966;SDS011;56108;48.730;9.304;2022-11-14T11:17:19;11.38;;;10.27;;
966;SDS011;56108;48.730;9.304;2022-11-14T11:19:55;10.20;;;9.30;;
966;SDS011;56108;48.730;9.304;2022-11-14T11:22:49;7.47;;;6.78;;
966;SDS011;56108;48.730;9.304;2022-11-14T11:25:29;8.60;;;7.70;;
966;SDS011;56108;48.730;9.304;2022-11-14T11:28:03;7.55;;;6.80;;
966;SDS011;56108;48.730;9.304;2022-11-14T11:30:31;6.05;;;5.55;;
966;SDS011;56108;48.730;9.304;2022-11-14T11:35:48;4.60;;;4.30;;
966;SDS011;56108;48.730;9.304;2022-11-14T11:38:17;4.72;;;4.40;;
966;SDS011;56108;48.730;9.304;2022-11-14T11:40:45;3.95;;;3.65;;
966;SDS011;56108;48.730;9.304;2022-11-14T11:43:25;4.25;;;3.85;;
966;SDS011;56108;48.730;9.304;2022-11-14T11:46:03;3.70;;;3.50;;
966;SDS011;56108;48.730;9.304;2022-11-14T11:48:39;3.20;;;3.00;;
966;SDS011;56108;48.730;9.304;2022-11-14T11:51:09;3.63;;;3.35;;
966;SDS011;56108;48.730;9.304;2022-11-14T11:53:55;4.22;;;3.08;;
966;SDS011;56108;48.730;9.304;2022-11-14T11:56:29;3.00;;;2.80;;
966;SDS011;56108;48.730;9.304;2022-11-14T11:59:13;3.00;;;2.80;;
966;SDS011;56108;48.730;9.304;2022-11-14T12:01:47;2.53;;;2.42;;
966;SDS011;56108;48.730;9.304;2022-11-14T12:04:19;4.18;;;2.10;;
966;SDS011;56108;48.730;9.304;2022-11-14T12:06:47;3.38;;;2.80;;
966;SDS011;56108;48.730;9.304;2022-11-14T12:09:23;3.00;;;2.80;;
966;SDS011;56108;48.730;9.304;2022-11-14T12:12:16;2.25;;;2.10;;
966;SDS011;56108;48.730;9.304;2022-11-14T12:15:02;2.22;;;2.13;;
966;SDS011;56108;48.730;9.304;2022-11-14T12:26:34;2.70;;;1.95;;
966;SDS011;56108;48.730;9.304;2022-11-14T12:29:24;2.40;;;2.30;;
966;SDS011;56108;48.730;9.304;2022-11-14T12:32:04;2.80;;;2.60;;
966;SDS011;56108;48.730;9.304;2022-11-14T12:34:33;2.55;;;2.40;;
966;SDS011;56108;48.730;9.304;2022-11-14T12:37:09;2.80;;;2.60;;
966;SDS011;56108;48.730;9.304;2022-11-14T12:39:41;2.83;;;2.65;;
966;SDS011;56108;48.730;9.304;2022-11-14T12:42:08;2.63;;;2.42;;
966;SDS011;56108;48.730;9.304;2022-11-14T12:44:39;2.70;;;2.50;;
966;SDS011;56108;48.730;9.304;2022-11-14T12:47:18;2.60;;;2.40;;
966;SDS011;56108;48.730;9.304;2022-11-14T12:52:47;2.65;;;2.45;;
966;SDS011;56108;48.730;9.304;2022-11-14T12:58:14;3.10;;;2.25;;
966;SDS011;56108;48.730;9.304;2022-11-14T13:00:56;2.85;;;2.65;;
966;SDS011;56108;48.730;9.304;2022-11-14T13:03:39;3.05;;;2.85;;
966;SDS011;56108;48.730;9.304;2022-11-14T13:06:18;2.90;;;2.70;;
966;SDS011;56108;48.730;9.304;2022-11-14T13:11:50;3.05;;;2.85;;
966;SDS011;56108;48.730;9.304;2022-11-14T13:14:29;3.55;;;2.60;;
966;SDS011;56108;48.730;9.304;2022-11-14T13:17:10;3.03;;;2.75;;
966;SDS011;56108;48.730;9.304;2022-11-14T13:20:02;2.20;;;2.10;;
966;SDS011;56108;48.730;9.304;2022-11-14T13:23:03;2.13;;;2.03;;
966;SDS011;56108;48.730;9.304;2022-11-14T13:25:33;2.40;;;2.25;;
966;SDS011;56108;48.730;9.304;2022-11-14T13:31:15;2.10;;;1.90;;
966;SDS011;56108;48.730;9.304;2022-11-14T13:33:45;2.30;;;2.20;;
966;SDS011;56108;48.730;9.304;2022-11-14T13:36:14;2.42;;;2.33;;
966;SDS011;56108;48.730;9.304;2022-11-14T13:42:02;2.50;;;2.30;;
966;SDS011;56108;48.730;9.304;2022-11-14T13:44:42;2.72;;;2.53;;
966;SDS011;56108;48.730;9.304;2022-11-14T13:47:24;3.28;;;3.08;;
966;SDS011;56108;48.730;9.304;2022-11-14T13:50:02;3.22;;;2.92;;
966;SDS011;56108;48.730;9.304;2022-11-14T13:52:31;3.38;;;3.13;;
966;SDS011;56108;48.730;9.304;2022-11-14T13:55:00;3.00;;;2.80;;
966;SDS011;56108;48.730;9.304;2022-11-14T13:57:34;2.70;;;2.50;;
966;SDS011;56108;48.730;9.304;2022-11-14T14:00:10;2.10;;;2.00;;
966;SDS011;56108;48.730;9.304;2022-11-14T14:05:36;5.55;;;2.80;;
966;SDS011;56108;48.730;9.304;2022-11-14T14:08:15;2.40;;;2.30;;
966;SDS011;56108;48.730;9.304;2022-11-14T14:10:55;3.55;;;2.70;;
966;SDS011;56108;48.730;9.304;2022-11-14T14:13:39;2.85;;;2.28;;
966;SDS011;56108;48.730;9.304;2022-11-14T14:16:21;3.00;;;2.70;;
966;SDS011;56108;48.730;9.304;2022-11-14T14:18:57;3.08;;;2.88;;
966;SDS011;56108;48.730;9.304;2022-11-14T14:21:36;2.30;;;2.20;;
966;SDS011;56108;48.730;9.304;2022-11-14T14:24:13;2.60;;;2.40;;
966;SDS011;56108;48.730;9.304;2022-11-14T14:27:00;2.85;;;2.28;;
966;SDS011;56108;48.730;9.304;2022-11-14T14:29:44;3.50;;;3.10;;
966;SDS011;56108;48.730;9.304;2022-11-14T14:32:16;2.92;;;2.63;;
966;SDS011;56108;48.730;9.304;2022-11-14T14:34:44;3.10;;;2.80;;
966;SDS011;56108;48.730;9.304;2022-11-14T14:37:15;3.00;;;2.80;;
966;SDS011;56108;48.730;9.304;2022-11-14T14:45:53;3.53;;;3.22;;
966;SDS011;56108;48.730;9.304;2022-11-14T14:48:21;2.92;;;2.72;;
966;SDS011;56108;48.730;9.304;2022-11-14T14:50:53;3.58;;;3.28;;
966;SDS011;56108;48.730;9.304;2022-11-14T14:53:23;5.65;;;3.60;;
966;SDS011;56108;48.730;9.304;2022-11-14T14:55:53;3.50;;;3.08;;
966;SDS011;56108;48.730;9.304;2022-11-14T14:58:25;3.35;;;3.10;;
966;SDS011;56108;48.730;9.304;2022-11-14T15:00:58;3.80;;;3.60;;
966;SDS011;56108;48.730;9.304;2022-11-14T15:03:29;4.15;;;2.95;;
966;SDS011;56108;48.730;9.304;2022-11-14T15:06:00;3.05;;;2.85;;
966;SDS011;56108;48.730;9.304;2022-11-14T15:08:27;3.75;;;3.45;;
966;SDS011;56108;48.730;9.304;2022-11-14T15:10:57;3.33;;;3.03;;
966;SDS011;56108;48.730;9.304;2022-11-14T15:13:24;3.35;;;3.15;;
966;SDS011;56108;48.730;9.304;2022-11-14T15:15:52;4.35;;;4.03;;
966;SDS011;56108;48.730;9.304;2022-11-14T15:18:22;5.43;;;3.67;;
966;SDS011;56108;48.730;9.304;2022-11-14T15:23:34;4.07;;;3.78;;
966;SDS011;56108;48.730;9.304;2022-11-14T15:26:02;4.20;;;3.15;;
966;SDS011;56108;48.730;9.304;2022-11-14T15:28:32;3.92;;;3.67;;
966;SDS011;56108;48.730;9.304;2022-11-14T15:30:59;3.78;;;3.47;;
966;SDS011;56108;48.730;9.304;2022-11-14T15:33:31;4.35;;;4.05;;
966;SDS011;56108;48.730;9.304;2022-11-14T15:36:06;4.47;;;3.97;;
966;SDS011;56108;48.730;9.304;2022-11-14T15:38:35;4.68;;;4.22;;
966;SDS011;56108;48.730;9.304;2022-11-14T15:41:14;5.10;;;4.68;;
966;SDS011;56108;48.730;9.304;2022-11-14T15:43:47;4.47;;;4.05;;
966;SDS011;56108;48.730;9.304;2022-11-14T15:46:24;4.75;;;4.45;;
966;SDS011;56108;48.730;9.304;2022-11-14T15:48:55;4.60;;;4.30;;
966;SDS011;56108;48.730;9.304;2022-11-14T15:54:19;4.83;;;4.43;;
966;SDS011;56108;48.730;9.304;2022-11-14T15:56:47;5.35;;;4.85;;
966;SDS011;56108;48.730;9.304;2022-11-14T15:59:14;6.80;;;5.25;;
966;SDS011;56108;48.730;9.304;2022-11-14T16:01:41;5.03;;;4.63;;